sensor_id;sensor_type;location;lat;lon;timestamp;P1;durP1;ratioP1;P2;durP2;ratioP2
17414;SDS011;8825;48.086;16.426;2023-11-18T00:00:43;84.97;;;81.27;;
17414;SDS011;8825;48.086;16.426;2023-11-18T00:03:11;92.80;;;88.90;;
17414;SDS011;8825;48.086;16.426;2023-11-18T00:05:38;108.93;;;104.17;;
17414;SDS011;8825;48.086;16.426;2023-11-18T00:08:06;83.47;;;79.70;;
17414;SDS011;8825;48.086;16.426;2023-11-18T00:10:33;100.93;;;96.53;;
17414;SDS011;8825;48.086;16.426;2023-11-18T00:13:01;100.20;;;95.70;;
17414;SDS011;8825;48.086;16.426;2023-11-18T00:15:29;126.07;;;120.73;;
17414;SDS011;8825;48.086;16.426;2023-11-18T00:17:59;122.07;;;116.73;;
17414;SDS011;8825;48.086;16.426;2023-11-18T00:20:26;105.83;;;101.13;;
17414;SDS011;8825;48.086;16.426;2023-11-18T00:22:55;96.47;;;92.23;;
17414;SDS011;8825;48.086;16.426;2023-11-18T00:25:23;82.57;;;78.87;;
17414;SDS011;8825;48.086;16.426;2023-11-18T00:27:51;120.73;;;115.53;;
17414;SDS011;8825;48.086;16.426;2023-11-18T00:30:18;158.00;;;151.27;;
17414;SDS011;8825;48.086;16.426;2023-11-18T00:32:46;129.53;;;124.10;;
17414;SDS011;8825;48.086;16.426;2023-11-18T00:35:13;110.70;;;105.83;;
17414;SDS011;8825;48.086;16.426;2023-11-18T00:37:41;96.40;;;92.37;;
17414;SDS011;8825;48.086;16.426;2023-11-18T00:40:09;140.17;;;134.20;;
17414;SDS011;8825;48.086;16.426;2023-11-18T00:42:37;147.50;;;141.20;;
17414;SDS011;8825;48.086;16.426;2023-11-18T00:45:05;107.83;;;103.33;;
17414;SDS011;8825;48.086;16.426;2023-11-18T00:47:33;130.47;;;124.60;;
17414;SDS011;8825;48.086;16.426;2023-11-18T00:50:01;137.03;;;131.33;;
17414;SDS011;8825;48.086;16.426;2023-11-18T00:52:28;129.07;;;123.67;;
17414;SDS011;8825;48.086;16.426;2023-11-18T00:54:56;125.53;;;120.10;;
17414;SDS011;8825;48.086;16.426;2023-11-18T00:57:23;105.97;;;101.30;;
17414;SDS011;8825;48.086;16.426;2023-11-18T00:59:51;112.53;;;107.73;;
17414;SDS011;8825;48.086;16.426;2023-11-18T01:02:19;133.10;;;127.63;;
17414;SDS011;8825;48.086;16.426;2023-11-18T01:04:46;129.73;;;124.30;;
17414;SDS011;8825;48.086;16.426;2023-11-18T01:07:14;147.23;;;141.03;;
17414;SDS011;8825;48.086;16.426;2023-11-18T01:09:41;133.70;;;128.10;;
17414;SDS011;8825;48.086;16.426;2023-11-18T01:12:09;118.03;;;112.97;;
17414;SDS011;8825;48.086;16.426;2023-11-18T01:14:36;124.63;;;119.27;;
17414;SDS011;8825;48.086;16.426;2023-11-18T01:17:05;108.20;;;103.50;;
17414;SDS011;8825;48.086;16.426;2023-11-18T01:19:32;131.50;;;125.87;;
17414;SDS011;8825;48.086;16.426;2023-11-18T01:22:00;129.57;;;123.93;;
17414;SDS011;8825;48.086;16.426;2023-11-18T01:24:32;136.33;;;130.37;;
17414;SDS011;8825;48.086;16.426;2023-11-18T01:27:01;142.13;;;135.87;;
17414;SDS011;8825;48.086;16.426;2023-11-18T01:29:28;132.60;;;126.50;;
17414;SDS011;8825;48.086;16.426;2023-11-18T01:31:56;149.10;;;142.63;;
17414;SDS011;8825;48.086;16.426;2023-11-18T01:34:24;141.27;;;134.93;;
17414;SDS011;8825;48.086;16.426;2023-11-18T01:36:52;152.70;;;145.97;;
17414;SDS011;8825;48.086;16.426;2023-11-18T01:39:19;154.40;;;147.47;;
17414;SDS011;8825;48.086;16.426;2023-11-18T01:41:46;136.80;;;130.63;;
17414;SDS011;8825;48.086;16.426;2023-11-18T01:44:15;144.87;;;138.50;;
17414;SDS011;8825;48.086;16.426;2023-11-18T01:46:44;197.93;;;188.90;;
17414;SDS011;8825;48.086;16.426;2023-11-18T01:49:12;149.53;;;143.00;;
17414;SDS011;8825;48.086;16.426;2023-11-18T01:51:41;151.10;;;144.70;;
17414;SDS011;8825;48.086;16.426;2023-11-18T01:54:11;150.87;;;144.27;;
17414;SDS011;8825;48.086;16.426;2023-11-18T01:56:46;119.13;;;113.73;;
17414;SDS011;8825;48.086;16.426;2023-11-18T01:59:15;149.87;;;143.40;;
17414;SDS011;8825;48.086;16.426;2023-11-18T02:01:50;167.90;;;161.00;;
17414;SDS011;8825;48.086;16.426;2023-11-18T02:04:20;138.63;;;132.77;;
17414;SDS011;8825;48.086;16.426;2023-11-18T02:06:48;134.50;;;128.63;;
17414;SDS011;8825;48.086;16.426;2023-11-18T02:09:17;131.73;;;126.27;;
17414;SDS011;8825;48.086;16.426;2023-11-18T02:14:34;109.70;;;105.00;;
17414;SDS011;8825;48.086;16.426;2023-11-18T02:17:03;109.03;;;104.27;;
17414;SDS011;8825;48.086;16.426;2023-11-18T02:19:35;69.80;;;66.70;;
17414;SDS011;8825;48.086;16.426;2023-11-18T02:22:03;120.37;;;115.33;;
17414;SDS011;8825;48.086;16.426;2023-11-18T02:24:37;91.97;;;88.07;;
17414;SDS011;8825;48.086;16.426;2023-11-18T02:27:06;125.30;;;120.03;;
17414;SDS011;8825;48.086;16.426;2023-11-18T02:29:36;120.23;;;115.30;;
17414;SDS011;8825;48.086;16.426;2023-11-18T02:35:09;64.83;;;61.83;;
17414;SDS011;8825;48.086;16.426;2023-11-18T02:37:49;140.50;;;134.77;;
17414;SDS011;8825;48.086;16.426;2023-11-18T02:40:19;74.57;;;71.20;;
17414;SDS011;8825;48.086;16.426;2023-11-18T02:42:50;76.80;;;73.50;;
17414;SDS011;8825;48.086;16.426;2023-11-18T02:45:21;123.17;;;117.87;;
17414;SDS011;8825;48.086;16.426;2023-11-18T02:47:49;70.73;;;67.53;;
17414;SDS011;8825;48.086;16.426;2023-11-18T02:50:17;79.07;;;75.57;;
17414;SDS011;8825;48.086;16.426;2023-11-18T02:52:46;121.40;;;116.37;;
17414;SDS011;8825;48.086;16.426;2023-11-18T02:55:14;141.00;;;135.10;;
17414;SDS011;8825;48.086;16.426;2023-11-18T02:57:42;131.30;;;125.77;;
17414;SDS011;8825;48.086;16.426;2023-11-18T03:00:09;117.17;;;112.17;;
17414;SDS011;8825;48.086;16.426;2023-11-18T03:02:39;150.07;;;143.93;;
17414;SDS011;8825;48.086;16.426;2023-11-18T03:05:07;147.30;;;141.23;;
17414;SDS011;8825;48.086;16.426;2023-11-18T03:07:37;106.73;;;102.20;;
17414;SDS011;8825;48.086;16.426;2023-11-18T03:10:05;145.77;;;139.77;;
17414;SDS011;8825;48.086;16.426;2023-11-18T03:12:35;106.40;;;101.87;;
17414;SDS011;8825;48.086;16.426;2023-11-18T03:15:07;120.87;;;115.50;;
17414;SDS011;8825;48.086;16.426;2023-11-18T03:17:35;108.50;;;103.73;;
17414;SDS011;8825;48.086;16.426;2023-11-18T03:20:04;106.90;;;102.23;;
17414;SDS011;8825;48.086;16.426;2023-11-18T03:22:33;103.50;;;99.00;;
17414;SDS011;8825;48.086;16.426;2023-11-18T03:25:01;119.13;;;114.13;;
17414;SDS011;8825;48.086;16.426;2023-11-18T03:27:29;129.67;;;123.97;;
17414;SDS011;8825;48.086;16.426;2023-11-18T03:29:56;111.40;;;106.57;;
17414;SDS011;8825;48.086;16.426;2023-11-18T03:32:24;98.03;;;93.87;;
17414;SDS011;8825;48.086;16.426;2023-11-18T03:34:51;127.90;;;122.43;;
17414;SDS011;8825;48.086;16.426;2023-11-18T03:37:19;163.93;;;156.50;;
17414;SDS011;8825;48.086;16.426;2023-11-18T03:39:49;145.57;;;139.20;;
17414;SDS011;8825;48.086;16.426;2023-11-18T03:42:16;138.77;;;132.87;;
17414;SDS011;8825;48.086;16.426;2023-11-18T03:44:44;109.70;;;104.90;;
17414;SDS011;8825;48.086;16.426;2023-11-18T03:47:15;150.13;;;143.43;;
17414;SDS011;8825;48.086;16.426;2023-11-18T03:49:42;113.17;;;108.43;;
17414;SDS011;8825;48.086;16.426;2023-11-18T03:52:10;132.60;;;126.90;;
17414;SDS011;8825;48.086;16.426;2023-11-18T03:54:38;146.60;;;139.80;;
17414;SDS011;8825;48.086;16.426;2023-11-18T03:57:05;115.30;;;110.47;;
17414;SDS011;8825;48.086;16.426;2023-11-18T03:59:33;167.13;;;159.57;;
17414;SDS011;8825;48.086;16.426;2023-11-18T04:02:00;157.73;;;150.33;;
17414;SDS011;8825;48.086;16.426;2023-11-18T04:04:28;161.77;;;154.60;;
17414;SDS011;8825;48.086;16.426;2023-11-18T04:06:55;124.77;;;119.60;;
17414;SDS011;8825;48.086;16.426;2023-11-18T04:09:23;156.83;;;149.93;;
17414;SDS011;8825;48.086;16.426;2023-11-18T04:11:52;116.43;;;111.40;;
17414;SDS011;8825;48.086;16.426;2023-11-18T04:14:19;112.73;;;108.10;;
17414;SDS011;8825;48.086;16.426;2023-11-18T04:16:47;104.73;;;100.17;;
17414;SDS011;8825;48.086;16.426;2023-11-18T04:19:15;108.43;;;103.70;;
17414;SDS011;8825;48.086;16.426;2023-11-18T04:21:42;109.57;;;105.07;;
17414;SDS011;8825;48.086;16.426;2023-11-18T04:24:12;152.23;;;145.47;;
17414;SDS011;8825;48.086;16.426;2023-11-18T04:26:39;141.30;;;135.17;;
17414;SDS011;8825;48.086;16.426;2023-11-18T04:29:07;138.10;;;131.73;;
17414;SDS011;8825;48.086;16.426;2023-11-18T04:31:34;146.57;;;139.90;;
17414;SDS011;8825;48.086;16.426;2023-11-18T04:34:03;178.37;;;170.47;;
17414;SDS011;8825;48.086;16.426;2023-11-18T04:36:30;136.47;;;130.07;;
17414;SDS011;8825;48.086;16.426;2023-11-18T04:38:58;157.37;;;150.37;;
17414;SDS011;8825;48.086;16.426;2023-11-18T04:41:25;101.43;;;97.03;;
17414;SDS011;8825;48.086;16.426;2023-11-18T04:43:53;140.47;;;134.17;;
17414;SDS011;8825;48.086;16.426;2023-11-18T04:46:21;138.43;;;132.43;;
17414;SDS011;8825;48.086;16.426;2023-11-18T04:48:48;117.93;;;112.70;;
17414;SDS011;8825;48.086;16.426;2023-11-18T04:51:16;154.53;;;147.57;;
17414;SDS011;8825;48.086;16.426;2023-11-18T04:53:43;130.60;;;124.40;;
17414;SDS011;8825;48.086;16.426;2023-11-18T04:56:11;138.27;;;132.07;;
17414;SDS011;8825;48.086;16.426;2023-11-18T04:58:40;170.50;;;162.97;;
17414;SDS011;8825;48.086;16.426;2023-11-18T05:01:08;138.63;;;132.73;;
17414;SDS011;8825;48.086;16.426;2023-11-18T05:03:35;124.50;;;118.97;;
17414;SDS011;8825;48.086;16.426;2023-11-18T05:06:03;159.30;;;151.97;;
17414;SDS011;8825;48.086;16.426;2023-11-18T05:08:31;159.63;;;152.73;;
17414;SDS011;8825;48.086;16.426;2023-11-18T05:10:59;179.73;;;171.60;;
17414;SDS011;8825;48.086;16.426;2023-11-18T05:13:26;112.77;;;107.87;;
17414;SDS011;8825;48.086;16.426;2023-11-18T05:15:55;120.27;;;115.27;;
17414;SDS011;8825;48.086;16.426;2023-11-18T05:18:23;140.37;;;134.30;;
17414;SDS011;8825;48.086;16.426;2023-11-18T05:20:50;142.77;;;136.77;;
17414;SDS011;8825;48.086;16.426;2023-11-18T05:23:20;131.93;;;126.10;;
17414;SDS011;8825;48.086;16.426;2023-11-18T05:25:47;150.43;;;143.93;;
17414;SDS011;8825;48.086;16.426;2023-11-18T05:28:15;145.53;;;139.03;;
17414;SDS011;8825;48.086;16.426;2023-11-18T05:30:43;146.63;;;140.10;;
17414;SDS011;8825;48.086;16.426;2023-11-18T05:33:10;136.90;;;130.90;;
17414;SDS011;8825;48.086;16.426;2023-11-18T05:35:40;133.70;;;127.57;;
17414;SDS011;8825;48.086;16.426;2023-11-18T05:38:09;152.00;;;145.70;;
17414;SDS011;8825;48.086;16.426;2023-11-18T05:40:37;162.70;;;155.60;;
17414;SDS011;8825;48.086;16.426;2023-11-18T05:43:06;140.47;;;134.43;;
17414;SDS011;8825;48.086;16.426;2023-11-18T05:45:35;148.93;;;142.53;;
17414;SDS011;8825;48.086;16.426;2023-11-18T05:48:05;142.47;;;136.37;;
17414;SDS011;8825;48.086;16.426;2023-11-18T05:50:33;134.80;;;128.90;;
17414;SDS011;8825;48.086;16.426;2023-11-18T05:53:01;139.40;;;133.17;;
17414;SDS011;8825;48.086;16.426;2023-11-18T05:55:29;131.23;;;125.27;;
17414;SDS011;8825;48.086;16.426;2023-11-18T05:57:56;141.13;;;135.07;;
17414;SDS011;8825;48.086;16.426;2023-11-18T06:00:24;131.57;;;125.97;;
17414;SDS011;8825;48.086;16.426;2023-11-18T06:02:54;145.10;;;138.63;;
17414;SDS011;8825;48.086;16.426;2023-11-18T06:05:21;120.53;;;114.97;;
17414;SDS011;8825;48.086;16.426;2023-11-18T06:07:51;136.83;;;130.83;;
17414;SDS011;8825;48.086;16.426;2023-11-18T06:10:19;124.40;;;118.93;;
17414;SDS011;8825;48.086;16.426;2023-11-18T06:12:47;125.90;;;120.23;;
17414;SDS011;8825;48.086;16.426;2023-11-18T06:15:15;156.30;;;149.57;;
17414;SDS011;8825;48.086;16.426;2023-11-18T06:17:44;165.40;;;158.33;;
17414;SDS011;8825;48.086;16.426;2023-11-18T06:20:12;93.63;;;89.43;;
17414;SDS011;8825;48.086;16.426;2023-11-18T06:22:40;126.40;;;120.97;;
17414;SDS011;8825;48.086;16.426;2023-11-18T06:25:07;141.53;;;135.23;;
17414;SDS011;8825;48.086;16.426;2023-11-18T06:27:35;127.90;;;122.13;;
17414;SDS011;8825;48.086;16.426;2023-11-18T06:30:03;124.33;;;118.83;;
17414;SDS011;8825;48.086;16.426;2023-11-18T06:32:32;152.27;;;145.73;;
17414;SDS011;8825;48.086;16.426;2023-11-18T06:35:00;136.47;;;130.47;;
17414;SDS011;8825;48.086;16.426;2023-11-18T06:37:32;154.60;;;147.50;;
17414;SDS011;8825;48.086;16.426;2023-11-18T06:40:00;174.70;;;167.03;;
17414;SDS011;8825;48.086;16.426;2023-11-18T06:42:29;140.40;;;134.20;;
17414;SDS011;8825;48.086;16.426;2023-11-18T06:44:56;196.70;;;188.37;;
17414;SDS011;8825;48.086;16.426;2023-11-18T06:47:24;108.20;;;103.27;;
17414;SDS011;8825;48.086;16.426;2023-11-18T06:49:51;165.10;;;157.77;;
17414;SDS011;8825;48.086;16.426;2023-11-18T06:52:19;103.47;;;98.90;;
17414;SDS011;8825;48.086;16.426;2023-11-18T06:54:47;133.93;;;127.97;;
17414;SDS011;8825;48.086;16.426;2023-11-18T06:57:16;150.87;;;144.10;;
17414;SDS011;8825;48.086;16.426;2023-11-18T06:59:43;128.43;;;122.67;;
17414;SDS011;8825;48.086;16.426;2023-11-18T07:02:11;167.23;;;160.03;;
17414;SDS011;8825;48.086;16.426;2023-11-18T07:04:39;134.20;;;128.53;;
17414;SDS011;8825;48.086;16.426;2023-11-18T07:07:06;172.63;;;165.10;;
17414;SDS011;8825;48.086;16.426;2023-11-18T07:09:34;148.23;;;141.97;;
17414;SDS011;8825;48.086;16.426;2023-11-18T07:12:02;140.93;;;134.60;;
17414;SDS011;8825;48.086;16.426;2023-11-18T07:14:30;134.30;;;128.50;;
17414;SDS011;8825;48.086;16.426;2023-11-18T07:16:58;161.70;;;154.73;;
17414;SDS011;8825;48.086;16.426;2023-11-18T07:19:25;151.67;;;145.27;;
17414;SDS011;8825;48.086;16.426;2023-11-18T07:21:55;149.47;;;143.17;;
17414;SDS011;8825;48.086;16.426;2023-11-18T07:24:22;151.20;;;144.60;;
17414;SDS011;8825;48.086;16.426;2023-11-18T07:26:50;143.17;;;137.07;;
17414;SDS011;8825;48.086;16.426;2023-11-18T07:29:17;124.53;;;119.10;;
17414;SDS011;8825;48.086;16.426;2023-11-18T07:31:45;102.37;;;97.80;;
17414;SDS011;8825;48.086;16.426;2023-11-18T07:34:13;109.10;;;104.47;;
17414;SDS011;8825;48.086;16.426;2023-11-18T07:36:40;97.47;;;93.13;;
17414;SDS011;8825;48.086;16.426;2023-11-18T07:39:10;98.83;;;94.67;;
17414;SDS011;8825;48.086;16.426;2023-11-18T07:41:39;113.23;;;108.50;;
17414;SDS011;8825;48.086;16.426;2023-11-18T07:44:06;101.17;;;96.67;;
17414;SDS011;8825;48.086;16.426;2023-11-18T07:46:36;98.33;;;94.20;;
17414;SDS011;8825;48.086;16.426;2023-11-18T07:49:04;101.57;;;97.13;;
17414;SDS011;8825;48.086;16.426;2023-11-18T07:51:32;95.40;;;91.13;;
17414;SDS011;8825;48.086;16.426;2023-11-18T07:53:59;83.90;;;80.10;;
17414;SDS011;8825;48.086;16.426;2023-11-18T07:56:29;76.03;;;72.73;;
17414;SDS011;8825;48.086;16.426;2023-11-18T07:58:58;87.30;;;83.47;;
17414;SDS011;8825;48.086;16.426;2023-11-18T08:01:25;87.50;;;83.60;;
17414;SDS011;8825;48.086;16.426;2023-11-18T08:03:53;82.17;;;78.50;;
17414;SDS011;8825;48.086;16.426;2023-11-18T08:06:20;91.73;;;87.40;;
17414;SDS011;8825;48.086;16.426;2023-11-18T08:08:50;81.40;;;77.70;;
17414;SDS011;8825;48.086;16.426;2023-11-18T08:11:19;90.83;;;86.73;;
17414;SDS011;8825;48.086;16.426;2023-11-18T08:13:46;59.67;;;57.00;;
17414;SDS011;8825;48.086;16.426;2023-11-18T08:16:14;82.20;;;78.47;;
17414;SDS011;8825;48.086;16.426;2023-11-18T08:18:41;84.07;;;80.23;;
17414;SDS011;8825;48.086;16.426;2023-11-18T08:21:10;75.10;;;71.77;;
17414;SDS011;8825;48.086;16.426;2023-11-18T08:23:38;105.10;;;100.50;;
17414;SDS011;8825;48.086;16.426;2023-11-18T08:26:07;70.10;;;66.90;;
17414;SDS011;8825;48.086;16.426;2023-11-18T08:28:35;66.43;;;63.50;;
17414;SDS011;8825;48.086;16.426;2023-11-18T08:31:02;77.17;;;73.67;;
17414;SDS011;8825;48.086;16.426;2023-11-18T08:33:32;55.53;;;52.97;;
17414;SDS011;8825;48.086;16.426;2023-11-18T08:35:59;57.90;;;55.30;;
17414;SDS011;8825;48.086;16.426;2023-11-18T08:38:27;60.10;;;57.37;;
17414;SDS011;8825;48.086;16.426;2023-11-18T08:40:55;51.63;;;49.27;;
17414;SDS011;8825;48.086;16.426;2023-11-18T08:43:22;55.60;;;53.00;;
17414;SDS011;8825;48.086;16.426;2023-11-18T08:45:51;57.60;;;54.80;;
17414;SDS011;8825;48.086;16.426;2023-11-18T08:48:18;53.43;;;50.97;;
17414;SDS011;8825;48.086;16.426;2023-11-18T08:50:47;52.60;;;50.20;;
17414;SDS011;8825;48.086;16.426;2023-11-18T08:53:17;57.13;;;54.60;;
17414;SDS011;8825;48.086;16.426;2023-11-18T08:55:46;46.43;;;44.23;;
17414;SDS011;8825;48.086;16.426;2023-11-18T08:58:16;75.17;;;71.83;;
17414;SDS011;8825;48.086;16.426;2023-11-18T09:00:57;48.07;;;45.83;;
17414;SDS011;8825;48.086;16.426;2023-11-18T09:03:29;47.23;;;45.07;;
17414;SDS011;8825;48.086;16.426;2023-11-18T09:06:05;43.43;;;41.43;;
17414;SDS011;8825;48.086;16.426;2023-11-18T09:08:36;43.37;;;41.47;;
17414;SDS011;8825;48.086;16.426;2023-11-18T09:11:05;57.87;;;55.33;;
17414;SDS011;8825;48.086;16.426;2023-11-18T09:13:36;43.13;;;41.23;;
17414;SDS011;8825;48.086;16.426;2023-11-18T09:16:05;45.83;;;43.77;;
17414;SDS011;8825;48.086;16.426;2023-11-18T09:18:40;63.10;;;60.40;;
17414;SDS011;8825;48.086;16.426;2023-11-18T09:21:11;58.50;;;55.83;;
17414;SDS011;8825;48.086;16.426;2023-11-18T09:23:44;37.20;;;35.50;;
17414;SDS011;8825;48.086;16.426;2023-11-18T09:26:13;38.47;;;36.67;;
17414;SDS011;8825;48.086;16.426;2023-11-18T09:28:42;82.40;;;78.90;;
17414;SDS011;8825;48.086;16.426;2023-11-18T09:31:14;66.57;;;63.27;;
17414;SDS011;8825;48.086;16.426;2023-11-18T09:33:42;106.13;;;101.60;;
17414;SDS011;8825;48.086;16.426;2023-11-18T09:36:12;102.93;;;98.53;;
17414;SDS011;8825;48.086;16.426;2023-11-18T09:38:40;98.17;;;93.80;;
17414;SDS011;8825;48.086;16.426;2023-11-18T09:41:09;127.37;;;121.93;;
17414;SDS011;8825;48.086;16.426;2023-11-18T09:43:37;112.37;;;107.33;;
17414;SDS011;8825;48.086;16.426;2023-11-18T09:46:11;114.30;;;109.37;;
17414;SDS011;8825;48.086;16.426;2023-11-18T09:48:57;139.97;;;133.53;;
17414;SDS011;8825;48.086;16.426;2023-11-18T09:51:22;148.33;;;141.77;;
17414;SDS011;8825;48.086;16.426;2023-11-18T09:53:53;129.67;;;124.07;;
17414;SDS011;8825;48.086;16.426;2023-11-18T09:56:23;112.13;;;107.27;;
17414;SDS011;8825;48.086;16.426;2023-11-18T09:59:01;113.60;;;108.73;;
17414;SDS011;8825;48.086;16.426;2023-11-18T10:01:42;122.93;;;117.53;;
17414;SDS011;8825;48.086;16.426;2023-11-18T10:04:10;145.30;;;138.93;;
17414;SDS011;8825;48.086;16.426;2023-11-18T10:06:41;148.13;;;141.23;;
17414;SDS011;8825;48.086;16.426;2023-11-18T10:09:11;143.27;;;137.03;;
17414;SDS011;8825;48.086;16.426;2023-11-18T10:11:42;134.37;;;128.17;;
17414;SDS011;8825;48.086;16.426;2023-11-18T10:14:15;161.47;;;154.40;;
17414;SDS011;8825;48.086;16.426;2023-11-18T10:16:43;178.47;;;170.43;;
17414;SDS011;8825;48.086;16.426;2023-11-18T10:19:13;125.13;;;119.30;;
17414;SDS011;8825;48.086;16.426;2023-11-18T10:21:43;165.80;;;158.07;;
17414;SDS011;8825;48.086;16.426;2023-11-18T10:24:12;138.43;;;131.33;;
17414;SDS011;8825;48.086;16.426;2023-11-18T10:27:07;127.47;;;121.67;;
17414;SDS011;8825;48.086;16.426;2023-11-18T10:29:24;141.83;;;135.30;;
17414;SDS011;8825;48.086;16.426;2023-11-18T10:32:06;155.53;;;148.40;;
17414;SDS011;8825;48.086;16.426;2023-11-18T10:34:35;146.17;;;139.47;;
17414;SDS011;8825;48.086;16.426;2023-11-18T10:37:03;129.23;;;123.37;;
17414;SDS011;8825;48.086;16.426;2023-11-18T10:39:32;141.73;;;135.60;;
17414;SDS011;8825;48.086;16.426;2023-11-18T10:42:01;147.57;;;141.00;;
17414;SDS011;8825;48.086;16.426;2023-11-18T10:44:29;131.97;;;125.97;;
17414;SDS011;8825;48.086;16.426;2023-11-18T10:46:57;88.17;;;84.20;;
17414;SDS011;8825;48.086;16.426;2023-11-18T10:49:31;133.47;;;127.50;;
17414;SDS011;8825;48.086;16.426;2023-11-18T10:51:57;133.20;;;127.10;;
17414;SDS011;8825;48.086;16.426;2023-11-18T10:54:24;123.90;;;118.00;;
17414;SDS011;8825;48.086;16.426;2023-11-18T10:56:52;125.13;;;119.17;;
17414;SDS011;8825;48.086;16.426;2023-11-18T10:59:22;122.10;;;117.00;;
17414;SDS011;8825;48.086;16.426;2023-11-18T11:01:52;98.37;;;93.97;;
17414;SDS011;8825;48.086;16.426;2023-11-18T11:04:21;97.27;;;92.80;;
17414;SDS011;8825;48.086;16.426;2023-11-18T11:06:48;115.27;;;110.13;;
17414;SDS011;8825;48.086;16.426;2023-11-18T11:09:20;130.60;;;125.00;;
17414;SDS011;8825;48.086;16.426;2023-11-18T11:11:56;92.90;;;88.90;;
17414;SDS011;8825;48.086;16.426;2023-11-18T11:14:29;81.23;;;77.70;;
17414;SDS011;8825;48.086;16.426;2023-11-18T11:17:12;77.47;;;74.13;;
17414;SDS011;8825;48.086;16.426;2023-11-18T11:20:06;82.50;;;79.00;;
17414;SDS011;8825;48.086;16.426;2023-11-18T11:22:32;80.27;;;76.83;;
17414;SDS011;8825;48.086;16.426;2023-11-18T11:27:50;74.23;;;71.03;;
17414;SDS011;8825;48.086;16.426;2023-11-18T11:32:52;77.20;;;73.87;;
17414;SDS011;8825;48.086;16.426;2023-11-18T11:35:23;83.40;;;79.87;;
17414;SDS011;8825;48.086;16.426;2023-11-18T11:37:53;80.13;;;76.57;;
17414;SDS011;8825;48.086;16.426;2023-11-18T11:40:22;99.53;;;95.37;;
17414;SDS011;8825;48.086;16.426;2023-11-18T11:42:51;104.73;;;100.27;;
17414;SDS011;8825;48.086;16.426;2023-11-18T11:45:23;75.57;;;72.30;;
17414;SDS011;8825;48.086;16.426;2023-11-18T11:47:52;97.37;;;93.07;;
17414;SDS011;8825;48.086;16.426;2023-11-18T11:50:24;83.63;;;80.03;;
17414;SDS011;8825;48.086;16.426;2023-11-18T11:52:56;86.43;;;82.63;;
17414;SDS011;8825;48.086;16.426;2023-11-18T11:55:29;78.20;;;74.87;;
17414;SDS011;8825;48.086;16.426;2023-11-18T11:58:02;92.50;;;88.33;;
17414;SDS011;8825;48.086;16.426;2023-11-18T12:00:31;70.57;;;67.47;;
17414;SDS011;8825;48.086;16.426;2023-11-18T12:03:01;88.90;;;84.60;;
17414;SDS011;8825;48.086;16.426;2023-11-18T12:05:32;85.97;;;82.30;;
17414;SDS011;8825;48.086;16.426;2023-11-18T12:07:59;63.57;;;60.77;;
17414;SDS011;8825;48.086;16.426;2023-11-18T12:10:27;58.40;;;55.80;;
17414;SDS011;8825;48.086;16.426;2023-11-18T12:13:07;59.83;;;57.13;;
17414;SDS011;8825;48.086;16.426;2023-11-18T12:15:50;64.50;;;61.53;;
17414;SDS011;8825;48.086;16.426;2023-11-18T12:18:23;89.77;;;85.70;;
17414;SDS011;8825;48.086;16.426;2023-11-18T12:20:51;90.70;;;86.77;;
17414;SDS011;8825;48.086;16.426;2023-11-18T12:23:23;68.53;;;65.60;;
17414;SDS011;8825;48.086;16.426;2023-11-18T12:25:51;64.77;;;61.83;;
17414;SDS011;8825;48.086;16.426;2023-11-18T12:28:30;81.13;;;77.43;;
17414;SDS011;8825;48.086;16.426;2023-11-18T12:31:01;79.57;;;75.97;;
17414;SDS011;8825;48.086;16.426;2023-11-18T12:39:26;72.17;;;68.90;;
17414;SDS011;8825;48.086;16.426;2023-11-18T12:42:05;62.53;;;59.70;;
17414;SDS011;8825;48.086;16.426;2023-11-18T12:44:39;55.67;;;53.07;;
17414;SDS011;8825;48.086;16.426;2023-11-18T12:47:08;48.57;;;46.37;;
17414;SDS011;8825;48.086;16.426;2023-11-18T12:49:44;51.07;;;48.77;;
17414;SDS011;8825;48.086;16.426;2023-11-18T12:52:13;50.27;;;48.00;;
17414;SDS011;8825;48.086;16.426;2023-11-18T12:54:41;60.83;;;58.13;;
17414;SDS011;8825;48.086;16.426;2023-11-18T12:57:12;53.73;;;51.37;;
17414;SDS011;8825;48.086;16.426;2023-11-18T12:59:41;61.73;;;58.90;;
17414;SDS011;8825;48.086;16.426;2023-11-18T13:02:09;59.27;;;56.43;;
17414;SDS011;8825;48.086;16.426;2023-11-18T13:04:42;53.17;;;50.73;;
17414;SDS011;8825;48.086;16.426;2023-11-18T13:07:11;58.73;;;56.00;;
17414;SDS011;8825;48.086;16.426;2023-11-18T13:09:39;81.63;;;78.17;;
17414;SDS011;8825;48.086;16.426;2023-11-18T13:12:08;63.03;;;60.20;;
17414;SDS011;8825;48.086;16.426;2023-11-18T13:14:38;88.47;;;84.67;;
17414;SDS011;8825;48.086;16.426;2023-11-18T13:17:09;74.33;;;70.97;;
17414;SDS011;8825;48.086;16.426;2023-11-18T13:19:39;54.33;;;51.87;;
17414;SDS011;8825;48.086;16.426;2023-11-18T13:22:08;64.53;;;61.60;;
17414;SDS011;8825;48.086;16.426;2023-11-18T13:24:40;56.40;;;53.87;;
17414;SDS011;8825;48.086;16.426;2023-11-18T13:27:15;64.40;;;61.50;;
17414;SDS011;8825;48.086;16.426;2023-11-18T13:29:45;86.00;;;82.20;;
17414;SDS011;8825;48.086;16.426;2023-11-18T13:32:16;114.57;;;109.63;;
17414;SDS011;8825;48.086;16.426;2023-11-18T13:34:44;107.17;;;102.37;;
17414;SDS011;8825;48.086;16.426;2023-11-18T13:37:12;86.93;;;83.00;;
17414;SDS011;8825;48.086;16.426;2023-11-18T13:39:41;99.07;;;94.63;;
17414;SDS011;8825;48.086;16.426;2023-11-18T13:44:47;53.00;;;50.77;;
17414;SDS011;8825;48.086;16.426;2023-11-18T13:47:22;64.07;;;61.13;;
17414;SDS011;8825;48.086;16.426;2023-11-18T13:49:50;56.50;;;54.03;;
17414;SDS011;8825;48.086;16.426;2023-11-18T13:52:19;53.33;;;51.03;;
17414;SDS011;8825;48.086;16.426;2023-11-18T13:54:48;55.93;;;53.43;;
17414;SDS011;8825;48.086;16.426;2023-11-18T13:57:17;39.40;;;37.70;;
17414;SDS011;8825;48.086;16.426;2023-11-18T13:59:50;44.57;;;42.53;;
17414;SDS011;8825;48.086;16.426;2023-11-18T14:02:20;52.90;;;50.57;;
17414;SDS011;8825;48.086;16.426;2023-11-18T14:04:48;34.80;;;33.20;;
17414;SDS011;8825;48.086;16.426;2023-11-18T14:07:17;41.63;;;39.90;;
17414;SDS011;8825;48.086;16.426;2023-11-18T14:09:44;48.70;;;46.60;;
17414;SDS011;8825;48.086;16.426;2023-11-18T14:12:12;53.47;;;51.17;;
17414;SDS011;8825;48.086;16.426;2023-11-18T14:14:40;44.17;;;42.20;;
17414;SDS011;8825;48.086;16.426;2023-11-18T14:17:08;39.90;;;38.23;;
17414;SDS011;8825;48.086;16.426;2023-11-18T14:19:38;44.37;;;42.47;;
17414;SDS011;8825;48.086;16.426;2023-11-18T14:22:07;43.87;;;41.93;;
17414;SDS011;8825;48.086;16.426;2023-11-18T14:24:35;47.13;;;44.83;;
17414;SDS011;8825;48.086;16.426;2023-11-18T14:27:03;43.43;;;41.53;;
17414;SDS011;8825;48.086;16.426;2023-11-18T14:29:30;40.77;;;39.00;;
17414;SDS011;8825;48.086;16.426;2023-11-18T14:31:58;42.23;;;40.30;;
17414;SDS011;8825;48.086;16.426;2023-11-18T14:34:25;38.90;;;37.17;;
17414;SDS011;8825;48.086;16.426;2023-11-18T14:36:53;46.13;;;44.10;;